Ana Sayfa
METAR-TAF:

METAR-TAF

Havaalanları :

Ağrotur, Kıbrıs

Enlem: 34-35N, Boylam: 032-59E, yükseklik: 23 m

Güncel hava durumu gözlemi

Rapor saat 15:50 UTC de 53 dakika önce yapıldı.
Rüzgar batıdan 18 kt
Sıcaklık 25°C
Nem 89%
Basınç 1011 hPa
Görüş mesafesi 10 km veya daha fazla
1500 m altında bulut yok ve kümülonimbus yok

METAR: LCRA 231550Z 26018KT CAVOK 25/23 Q1011 NOSIG

Saat: 19:43 (16:43 UTC)

Tahmin

Rapor saat 13:21 UTC de 3 saat ve 22 dakika önce yapıldı.
Ayın 23'si saat 15 UTC'den ayın 24'si saat 09 UTC'ye kadar geçerli Tahmin
Rüzgar batıdan 15 kt ve 25 kt'a kadar ani rüzgarlar
Görüş mesafesi 10 km veya daha fazla
1500 m altında bulut yok ve kümülonimbus yok
Dönüşüyor
ayın 23'si saat 21 UTC'den ayın 23'si saat 24 UTC'ye kadar
Rüzgar batıdan 12 kt

TAF: LCRA 231321Z 2315/2409 26015G25KT CAVOK BECMG 2321/2324 27012KT

4.000'den fazla havaalanı için hava durumu gözlemleri ve tahminleri (METAR ve TAF raporları).

Kullanılabilir istasyonlar harita üzerinde sarı ve kırmızı noktalarla gösterilir.

İstasyonun adını görmek için fareyi noktanın üzerinde gezdirin.

Sonrasında hava gözlem ve tahminlerini görmek için tıklayın.

Haritayı değiştirmek için: yaklaştırmak için siyah artı işaretli yeşil düğmeye ve uzaklaştırmak için de eksi işaretli düğmeye hızla tıklayın; bitişik haritalar için yeşil okları kullanın.


METAR-TAF: